sensor_id;sensor_type;location;lat;lon;timestamp;pressure;altitude;pressure_sealevel;temperature;humidity
63927;BME280;50103;47.960;21.712;2022-10-17T05:01:08;101912.24;;;9.42;92.21
63927;BME280;50103;47.960;21.712;2022-10-17T05:03:35;101916.11;;;9.42;92.26
63927;BME280;50103;47.960;21.712;2022-10-17T05:06:11;101912.27;;;9.41;92.30
63927;BME280;50103;47.960;21.712;2022-10-17T05:08:37;101913.10;;;9.39;92.30
63927;BME280;50103;47.960;21.712;2022-10-17T05:11:03;101913.69;;;9.37;92.39
63927;BME280;50103;47.960;21.712;2022-10-17T05:13:31;101916.90;;;9.37;92.57
63927;BME280;50103;47.960;21.712;2022-10-17T05:15:58;101918.90;;;9.36;92.93
63927;BME280;50103;47.960;21.712;2022-10-17T05:18:25;101922.52;;;9.34;92.88
63927;BME280;50103;47.960;21.712;2022-10-17T05:20:51;101922.02;;;9.33;92.79
63927;BME280;50103;47.960;21.712;2022-10-17T05:23:16;101920.67;;;9.32;92.79
63927;BME280;50103;47.960;21.712;2022-10-17T05:25:42;101926.88;;;9.31;93.01
63927;BME280;50103;47.960;21.712;2022-10-17T05:28:07;101931.83;;;9.32;93.30
63927;BME280;50103;47.960;21.712;2022-10-17T05:30:34;101936.06;;;9.31;93.53
63927;BME280;50103;47.960;21.712;2022-10-17T05:33:01;101940.27;;;9.32;93.88
63927;BME280;50103;47.960;21.712;2022-10-17T05:35:27;101946.63;;;9.32;93.81
63927;BME280;50103;47.960;21.712;2022-10-17T05:37:52;101946.77;;;9.33;93.87
63927;BME280;50103;47.960;21.712;2022-10-17T05:40:18;101946.73;;;9.34;93.91
63927;BME280;50103;47.960;21.712;2022-10-17T05:42:47;101954.13;;;9.35;93.99
63927;BME280;50103;47.960;21.712;2022-10-17T05:45:14;101961.64;;;9.37;94.14
63927;BME280;50103;47.960;21.712;2022-10-17T05:47:40;101962.47;;;9.38;94.26
63927;BME280;50103;47.960;21.712;2022-10-17T05:50:07;101964.18;;;9.39;94.18
63927;BME280;50103;47.960;21.712;2022-10-17T05:52:33;101972.23;;;9.41;94.19
63927;BME280;50103;47.960;21.712;2022-10-17T05:54:58;101974.42;;;9.42;94.35
63927;BME280;50103;47.960;21.712;2022-10-17T05:57:24;101977.37;;;9.44;94.42
63927;BME280;50103;47.960;21.712;2022-10-17T05:59:50;101987.02;;;9.46;94.53
63927;BME280;50103;47.960;21.712;2022-10-17T06:02:16;101996.17;;;9.46;94.38
63927;BME280;50103;47.960;21.712;2022-10-17T06:04:41;101999.31;;;9.48;94.70
63927;BME280;50103;47.960;21.712;2022-10-17T06:07:11;102003.83;;;9.50;94.86
63927;BME280;50103;47.960;21.712;2022-10-17T06:09:37;102003.92;;;9.52;94.95
63927;BME280;50103;47.960;21.712;2022-10-17T06:12:03;102007.56;;;9.54;94.92
63927;BME280;50103;47.960;21.712;2022-10-17T06:14:32;102009.58;;;9.56;94.98
63927;BME280;50103;47.960;21.712;2022-10-17T06:16:57;102011.75;;;9.58;94.68
63927;BME280;50103;47.960;21.712;2022-10-17T06:19:24;102014.27;;;9.61;94.88
63927;BME280;50103;47.960;21.712;2022-10-17T06:21:50;102017.33;;;9.63;94.86
63927;BME280;50103;47.960;21.712;2022-10-17T06:24:16;102020.03;;;9.67;95.25
63927;BME280;50103;47.960;21.712;2022-10-17T06:26:42;102019.92;;;9.69;95.03
63927;BME280;50103;47.960;21.712;2022-10-17T06:29:08;102018.18;;;9.72;94.93
63927;BME280;50103;47.960;21.712;2022-10-17T06:31:34;102026.27;;;9.76;95.44
63927;BME280;50103;47.960;21.712;2022-10-17T06:33:59;102028.05;;;9.80;95.35
63927;BME280;50103;47.960;21.712;2022-10-17T06:36:25;102030.17;;;9.84;95.23
63927;BME280;50103;47.960;21.712;2022-10-17T06:38:50;102036.56;;;9.88;95.11
63927;BME280;50103;47.960;21.712;2022-10-17T06:41:17;102038.85;;;9.92;95.57
63927;BME280;50103;47.960;21.712;2022-10-17T06:43:45;102044.86;;;9.95;95.36
63927;BME280;50103;47.960;21.712;2022-10-17T06:46:16;102046.08;;;10.00;95.31
63927;BME280;50103;47.960;21.712;2022-10-17T06:48:42;102050.81;;;10.05;95.22
63927;BME280;50103;47.960;21.712;2022-10-17T06:51:08;102050.61;;;10.08;95.41
63927;BME280;50103;47.960;21.712;2022-10-17T06:53:36;102056.77;;;10.13;95.60
63927;BME280;50103;47.960;21.712;2022-10-17T06:56:03;102059.38;;;10.19;95.32
63927;BME280;50103;47.960;21.712;2022-10-17T06:58:32;102064.04;;;10.24;95.20
63927;BME280;50103;47.960;21.712;2022-10-17T07:01:03;102062.02;;;10.30;95.56
63927;BME280;50103;47.960;21.712;2022-10-17T07:03:30;102067.10;;;10.35;95.50
63927;BME280;50103;47.960;21.712;2022-10-17T07:05:56;102071.13;;;10.39;95.29
63927;BME280;50103;47.960;21.712;2022-10-17T07:08:22;102072.17;;;10.43;95.68
63927;BME280;50103;47.960;21.712;2022-10-17T07:10:48;102069.45;;;10.48;95.47
63927;BME280;50103;47.960;21.712;2022-10-17T07:13:13;102067.38;;;10.55;95.54
63927;BME280;50103;47.960;21.712;2022-10-17T07:15:40;102072.78;;;10.60;95.61
63927;BME280;50103;47.960;21.712;2022-10-17T07:18:05;102074.77;;;10.66;95.76
63927;BME280;50103;47.960;21.712;2022-10-17T07:20:31;102076.00;;;10.73;95.89
63927;BME280;50103;47.960;21.712;2022-10-17T07:22:57;102078.33;;;10.80;95.81
63927;BME280;50103;47.960;21.712;2022-10-17T07:25:22;102080.29;;;10.87;95.83
63927;BME280;50103;47.960;21.712;2022-10-17T07:27:49;102079.70;;;10.95;96.19
63927;BME280;50103;47.960;21.712;2022-10-17T07:30:15;102081.23;;;11.03;96.01
63927;BME280;50103;47.960;21.712;2022-10-17T07:32:41;102078.30;;;11.08;95.83
63927;BME280;50103;47.960;21.712;2022-10-17T07:35:10;102076.96;;;11.14;95.79
63927;BME280;50103;47.960;21.712;2022-10-17T07:37:36;102077.47;;;11.21;95.72
63927;BME280;50103;47.960;21.712;2022-10-17T07:40:04;102076.58;;;11.29;95.54
63927;BME280;50103;47.960;21.712;2022-10-17T07:42:32;102077.41;;;11.36;95.57
63927;BME280;50103;47.960;21.712;2022-10-17T07:45:00;102076.35;;;11.43;95.49
63927;BME280;50103;47.960;21.712;2022-10-17T07:47:29;102079.68;;;11.50;95.29
63927;BME280;50103;47.960;21.712;2022-10-17T07:49:56;102076.66;;;11.57;95.25
63927;BME280;50103;47.960;21.712;2022-10-17T07:52:22;102076.09;;;11.65;95.10
63927;BME280;50103;47.960;21.712;2022-10-17T07:54:47;102077.65;;;11.72;94.76
63927;BME280;50103;47.960;21.712;2022-10-17T07:57:13;102078.90;;;11.79;94.81
63927;BME280;50103;47.960;21.712;2022-10-17T07:59:38;102080.84;;;11.85;94.44
63927;BME280;50103;47.960;21.712;2022-10-17T08:02:04;102077.34;;;11.91;94.31
63927;BME280;50103;47.960;21.712;2022-10-17T08:04:29;102081.38;;;11.99;94.29
63927;BME280;50103;47.960;21.712;2022-10-17T08:06:55;102079.56;;;12.05;94.17
63927;BME280;50103;47.960;21.712;2022-10-17T08:09:21;102076.35;;;12.12;94.00
63927;BME280;50103;47.960;21.712;2022-10-17T08:11:46;102078.48;;;12.18;93.80
63927;BME280;50103;47.960;21.712;2022-10-17T08:14:14;102083.59;;;12.26;93.57
63927;BME280;50103;47.960;21.712;2022-10-17T08:16:41;102083.59;;;12.32;93.30
63927;BME280;50103;47.960;21.712;2022-10-17T08:19:07;102084.47;;;12.39;93.03
63927;BME280;50103;47.960;21.712;2022-10-17T08:21:38;102084.12;;;12.45;92.86
63927;BME280;50103;47.960;21.712;2022-10-17T08:24:05;102083.54;;;12.52;92.79
63927;BME280;50103;47.960;21.712;2022-10-17T08:26:31;102082.85;;;12.61;92.73
63927;BME280;50103;47.960;21.712;2022-10-17T08:28:56;102081.43;;;12.70;92.55
63927;BME280;50103;47.960;21.712;2022-10-17T08:31:22;102084.89;;;12.78;92.16
63927;BME280;50103;47.960;21.712;2022-10-17T08:33:48;102083.61;;;12.84;91.84
63927;BME280;50103;47.960;21.712;2022-10-17T08:36:16;102083.84;;;12.92;91.50
63927;BME280;50103;47.960;21.712;2022-10-17T08:38:44;102079.45;;;13.01;91.23
63927;BME280;50103;47.960;21.712;2022-10-17T08:41:33;102081.80;;;13.09;90.70
63927;BME280;50103;47.960;21.712;2022-10-17T08:44:09;102082.35;;;13.18;90.42
63927;BME280;50103;47.960;21.712;2022-10-17T08:46:40;102078.99;;;13.26;89.93
63927;BME280;50103;47.960;21.712;2022-10-17T08:49:13;102077.75;;;13.35;89.37
63927;BME280;50103;47.960;21.712;2022-10-17T08:51:49;102076.83;;;13.45;88.75
63927;BME280;50103;47.960;21.712;2022-10-17T08:54:19;102074.06;;;13.55;88.13
63927;BME280;50103;47.960;21.712;2022-10-17T08:56:52;102077.05;;;13.64;87.59
63927;BME280;50103;47.960;21.712;2022-10-17T08:59:27;102077.19;;;13.74;87.02
63927;BME280;50103;47.960;21.712;2022-10-17T09:02:27;102079.86;;;13.82;86.78
63927;BME280;50103;47.960;21.712;2022-10-17T09:10:13;102084.35;;;14.10;84.58
63927;BME280;50103;47.960;21.712;2022-10-17T09:17:58;102089.17;;;14.40;82.02
63927;BME280;50103;47.960;21.712;2022-10-17T09:20:39;102092.14;;;14.52;81.76
63927;BME280;50103;47.960;21.712;2022-10-17T09:23:13;102092.23;;;14.61;81.56
63927;BME280;50103;47.960;21.712;2022-10-17T09:25:46;102090.38;;;14.68;81.32
63927;BME280;50103;47.960;21.712;2022-10-17T09:28:30;102085.54;;;14.74;80.72
63927;BME280;50103;47.960;21.712;2022-10-17T09:31:18;102084.81;;;14.82;80.22
63927;BME280;50103;47.960;21.712;2022-10-17T09:33:45;102079.65;;;14.93;79.84
63927;BME280;50103;47.960;21.712;2022-10-17T09:36:18;102083.46;;;15.02;79.52
63927;BME280;50103;47.960;21.712;2022-10-17T09:38:51;102078.27;;;15.13;79.14
63927;BME280;50103;47.960;21.712;2022-10-17T09:41:29;102083.20;;;15.24;78.51
63927;BME280;50103;47.960;21.712;2022-10-17T09:49:36;102081.10;;;15.57;76.78
63927;BME280;50103;47.960;21.712;2022-10-17T09:52:27;102077.45;;;15.66;76.04
63927;BME280;50103;47.960;21.712;2022-10-17T09:55:30;102074.26;;;15.78;75.35
63927;BME280;50103;47.960;21.712;2022-10-17T09:58:03;102072.77;;;15.94;74.96
63927;BME280;50103;47.960;21.712;2022-10-17T10:05:40;102074.16;;;16.34;74.21
63927;BME280;50103;47.960;21.712;2022-10-17T10:08:18;102072.02;;;16.51;73.35
63927;BME280;50103;47.960;21.712;2022-10-17T10:10:44;102068.16;;;16.69;72.70
63927;BME280;50103;47.960;21.712;2022-10-17T10:15:40;102062.83;;;17.57;72.95
63927;BME280;50103;47.960;21.712;2022-10-17T10:18:34;102062.88;;;18.10;71.83
63927;BME280;50103;47.960;21.712;2022-10-17T10:23:30;102059.87;;;19.11;66.91
63927;BME280;50103;47.960;21.712;2022-10-17T10:25:58;102056.02;;;19.48;65.09
63927;BME280;50103;47.960;21.712;2022-10-17T10:28:28;102053.31;;;19.77;62.36
63927;BME280;50103;47.960;21.712;2022-10-17T10:30:56;102054.58;;;19.96;60.56
63927;BME280;50103;47.960;21.712;2022-10-17T10:33:26;102049.92;;;20.02;59.40
63927;BME280;50103;47.960;21.712;2022-10-17T10:36:01;102056.38;;;20.09;60.23
63927;BME280;50103;47.960;21.712;2022-10-17T10:38:29;102054.65;;;20.17;59.76
63927;BME280;50103;47.960;21.712;2022-10-17T10:41:02;102054.81;;;20.28;59.32
63927;BME280;50103;47.960;21.712;2022-10-17T10:43:36;102054.73;;;20.41;58.50
63927;BME280;50103;47.960;21.712;2022-10-17T10:46:17;102056.95;;;20.50;56.97
63927;BME280;50103;47.960;21.712;2022-10-17T10:51:38;102048.20;;;20.65;55.99
63927;BME280;50103;47.960;21.712;2022-10-17T10:56:40;102046.41;;;20.88;54.24
63927;BME280;50103;47.960;21.712;2022-10-17T11:01:57;102035.55;;;21.21;53.38
63927;BME280;50103;47.960;21.712;2022-10-17T11:20:49;102035.69;;;22.54;47.24
63927;BME280;50103;47.960;21.712;2022-10-17T11:23:30;102030.98;;;22.80;47.40
63927;BME280;50103;47.960;21.712;2022-10-17T11:26:03;102024.84;;;23.03;46.86
63927;BME280;50103;47.960;21.712;2022-10-17T11:28:31;102023.20;;;23.22;45.18
63927;BME280;50103;47.960;21.712;2022-10-17T11:31:04;102025.61;;;23.39;44.94
63927;BME280;50103;47.960;21.712;2022-10-17T11:36:09;102019.00;;;23.74;43.81
63927;BME280;50103;47.960;21.712;2022-10-17T11:38:55;102015.44;;;23.90;42.88
63927;BME280;50103;47.960;21.712;2022-10-17T11:41:53;102015.90;;;24.08;43.06
63927;BME280;50103;47.960;21.712;2022-10-17T11:47:10;102009.52;;;24.52;42.01
63927;BME280;50103;47.960;21.712;2022-10-17T11:49:41;102010.52;;;24.69;42.00
63927;BME280;50103;47.960;21.712;2022-10-17T11:52:22;102008.51;;;24.77;41.36
63927;BME280;50103;47.960;21.712;2022-10-17T11:54:56;102005.46;;;24.98;42.48
63927;BME280;50103;47.960;21.712;2022-10-17T12:05:45;102001.89;;;25.99;39.56
63927;BME280;50103;47.960;21.712;2022-10-17T12:08:48;101999.61;;;26.17;38.79
63927;BME280;50103;47.960;21.712;2022-10-17T12:11:37;101998.44;;;26.35;38.63
63927;BME280;50103;47.960;21.712;2022-10-17T12:14:43;101997.02;;;26.51;37.62
63927;BME280;50103;47.960;21.712;2022-10-17T12:17:32;101996.52;;;26.65;37.65
63927;BME280;50103;47.960;21.712;2022-10-17T12:25:32;101988.88;;;26.71;37.25
63927;BME280;50103;47.960;21.712;2022-10-17T12:30:28;101984.38;;;27.05;36.81
63927;BME280;50103;47.960;21.712;2022-10-17T12:33:01;101985.73;;;27.20;35.95
63927;BME280;50103;47.960;21.712;2022-10-17T12:35:29;101983.08;;;27.33;36.03
63927;BME280;50103;47.960;21.712;2022-10-17T12:45:49;101977.23;;;27.80;34.22
63927;BME280;50103;47.960;21.712;2022-10-17T12:51:08;101980.52;;;28.03;34.27
63927;BME280;50103;47.960;21.712;2022-10-17T12:56:20;101978.48;;;28.25;33.58
63927;BME280;50103;47.960;21.712;2022-10-17T12:58:50;101975.97;;;28.16;33.49
63927;BME280;50103;47.960;21.712;2022-10-17T13:01:28;101973.35;;;28.15;34.07
63927;BME280;50103;47.960;21.712;2022-10-17T13:03:56;101976.37;;;28.14;33.86
63927;BME280;50103;47.960;21.712;2022-10-17T13:06:26;101972.64;;;28.15;33.62
63927;BME280;50103;47.960;21.712;2022-10-17T13:11:59;101962.87;;;28.03;33.81
63927;BME280;50103;47.960;21.712;2022-10-17T13:14:27;101965.85;;;28.17;33.37
63927;BME280;50103;47.960;21.712;2022-10-17T13:17:05;101966.11;;;28.39;32.65
63927;BME280;50103;47.960;21.712;2022-10-17T13:19:40;101967.27;;;28.64;32.27
63927;BME280;50103;47.960;21.712;2022-10-17T13:22:22;101961.92;;;28.83;31.40
63927;BME280;50103;47.960;21.712;2022-10-17T13:24:49;101963.90;;;28.99;31.43
63927;BME280;50103;47.960;21.712;2022-10-17T13:27:35;101962.52;;;29.18;30.93
63927;BME280;50103;47.960;21.712;2022-10-17T13:30:27;101959.20;;;29.42;31.17
63927;BME280;50103;47.960;21.712;2022-10-17T13:32:54;101958.15;;;29.65;31.21
63927;BME280;50103;47.960;21.712;2022-10-17T13:35:35;101956.76;;;29.83;30.49
63927;BME280;50103;47.960;21.712;2022-10-17T13:38:04;101963.43;;;29.89;29.98
63927;BME280;50103;47.960;21.712;2022-10-17T13:40:39;101964.67;;;29.84;30.18
63927;BME280;50103;47.960;21.712;2022-10-17T13:43:18;101963.64;;;29.69;30.39
63927;BME280;50103;47.960;21.712;2022-10-17T13:45:50;101959.52;;;29.27;30.47
63927;BME280;50103;47.960;21.712;2022-10-17T13:48:23;101962.96;;;28.84;30.68
63927;BME280;50103;47.960;21.712;2022-10-17T13:50:52;101962.74;;;28.43;30.84
63927;BME280;50103;47.960;21.712;2022-10-17T13:55:58;101958.44;;;27.62;31.56
63927;BME280;50103;47.960;21.712;2022-10-17T13:58:25;101957.44;;;27.28;32.24
63927;BME280;50103;47.960;21.712;2022-10-17T14:00:52;101956.49;;;27.04;32.66
63927;BME280;50103;47.960;21.712;2022-10-17T14:03:19;101953.98;;;26.79;32.71
63927;BME280;50103;47.960;21.712;2022-10-17T14:06:18;101955.00;;;26.55;33.33
63927;BME280;50103;47.960;21.712;2022-10-17T14:11:29;101960.32;;;26.18;34.11
63927;BME280;50103;47.960;21.712;2022-10-17T14:13:57;101957.63;;;26.07;34.70
63927;BME280;50103;47.960;21.712;2022-10-17T14:16:25;101959.55;;;25.97;34.68
63927;BME280;50103;47.960;21.712;2022-10-17T14:18:58;101953.58;;;25.82;34.91
63927;BME280;50103;47.960;21.712;2022-10-17T14:21:25;101952.80;;;25.67;35.10
63927;BME280;50103;47.960;21.712;2022-10-17T14:26:58;101950.49;;;25.37;35.29
63927;BME280;50103;47.960;21.712;2022-10-17T14:29:28;101946.42;;;25.20;35.29
63927;BME280;50103;47.960;21.712;2022-10-17T14:32:06;101947.52;;;25.07;35.35
63927;BME280;50103;47.960;21.712;2022-10-17T14:34:36;101950.95;;;24.93;35.29
63927;BME280;50103;47.960;21.712;2022-10-17T14:37:35;101950.16;;;24.80;35.64
63927;BME280;50103;47.960;21.712;2022-10-17T14:40:04;101948.41;;;24.67;36.46
63927;BME280;50103;47.960;21.712;2022-10-17T14:42:37;101946.78;;;24.57;36.61
63927;BME280;50103;47.960;21.712;2022-10-17T14:45:10;101945.11;;;24.48;36.75
63927;BME280;50103;47.960;21.712;2022-10-17T14:47:37;101949.17;;;24.37;36.61
63927;BME280;50103;47.960;21.712;2022-10-17T14:50:16;101946.48;;;24.29;36.67
63927;BME280;50103;47.960;21.712;2022-10-17T14:55:37;101944.45;;;24.09;36.95
63927;BME280;50103;47.960;21.712;2022-10-17T14:58:23;101948.26;;;23.96;37.43
63927;BME280;50103;47.960;21.712;2022-10-17T15:00:49;101946.00;;;23.82;37.65
63927;BME280;50103;47.960;21.712;2022-10-17T15:03:14;101949.27;;;23.69;38.32
63927;BME280;50103;47.960;21.712;2022-10-17T15:05:40;101948.60;;;23.59;38.43
63927;BME280;50103;47.960;21.712;2022-10-17T15:08:25;101949.88;;;23.47;38.82
63927;BME280;50103;47.960;21.712;2022-10-17T15:10:51;101946.81;;;23.33;39.40
63927;BME280;50103;47.960;21.712;2022-10-17T15:13:17;101948.11;;;23.24;39.56
63927;BME280;50103;47.960;21.712;2022-10-17T15:15:42;101946.35;;;23.17;39.62
63927;BME280;50103;47.960;21.712;2022-10-17T15:18:10;101947.71;;;23.08;39.84
63927;BME280;50103;47.960;21.712;2022-10-17T15:20:36;101951.21;;;22.96;40.09
63927;BME280;50103;47.960;21.712;2022-10-17T15:23:02;101952.80;;;22.85;40.40
63927;BME280;50103;47.960;21.712;2022-10-17T15:25:29;101951.02;;;22.74;40.59
63927;BME280;50103;47.960;21.712;2022-10-17T15:27:56;101951.05;;;22.61;40.77
63927;BME280;50103;47.960;21.712;2022-10-17T15:30:30;101950.24;;;22.49;41.05
63927;BME280;50103;47.960;21.712;2022-10-17T15:32:57;101950.85;;;22.42;41.28
63927;BME280;50103;47.960;21.712;2022-10-17T15:35:23;101956.95;;;22.33;41.68
63927;BME280;50103;47.960;21.712;2022-10-17T15:37:50;101958.74;;;22.22;42.03
63927;BME280;50103;47.960;21.712;2022-10-17T15:42:43;101961.02;;;22.00;42.65
63927;BME280;50103;47.960;21.712;2022-10-17T15:45:13;101961.45;;;21.88;42.93
63927;BME280;50103;47.960;21.712;2022-10-17T15:47:42;101966.46;;;21.76;43.24
63927;BME280;50103;47.960;21.712;2022-10-17T15:50:13;101969.35;;;21.63;43.52
63927;BME280;50103;47.960;21.712;2022-10-17T15:52:40;101965.92;;;21.52;43.86
63927;BME280;50103;47.960;21.712;2022-10-17T15:55:07;101964.05;;;21.43;43.99
63927;BME280;50103;47.960;21.712;2022-10-17T15:57:35;101960.56;;;21.33;44.20
63927;BME280;50103;47.960;21.712;2022-10-17T16:00:11;101963.50;;;21.25;44.53
63927;BME280;50103;47.960;21.712;2022-10-17T16:02:39;101959.09;;;21.14;44.62
63927;BME280;50103;47.960;21.712;2022-10-17T16:05:20;101961.84;;;21.04;45.08
63927;BME280;50103;47.960;21.712;2022-10-17T16:07:50;101968.40;;;20.94;45.36
63927;BME280;50103;47.960;21.712;2022-10-17T16:10:17;101970.55;;;20.88;45.95
63927;BME280;50103;47.960;21.712;2022-10-17T16:12:43;101972.09;;;20.82;46.00
63927;BME280;50103;47.960;21.712;2022-10-17T16:15:16;101975.63;;;20.71;46.36
63927;BME280;50103;47.960;21.712;2022-10-17T16:17:42;101981.66;;;20.61;46.77
63927;BME280;50103;47.960;21.712;2022-10-17T16:20:09;101984.23;;;20.50;46.97
63927;BME280;50103;47.960;21.712;2022-10-17T16:22:36;101980.94;;;20.41;47.47
63927;BME280;50103;47.960;21.712;2022-10-17T16:25:28;101981.20;;;20.30;48.07
63927;BME280;50103;47.960;21.712;2022-10-17T16:27:54;101989.03;;;20.17;48.33
63927;BME280;50103;47.960;21.712;2022-10-17T16:30:21;101988.30;;;20.06;48.88
63927;BME280;50103;47.960;21.712;2022-10-17T16:32:47;101984.86;;;19.96;49.25
63927;BME280;50103;47.960;21.712;2022-10-17T16:35:22;101987.45;;;19.87;49.70
63927;BME280;50103;47.960;21.712;2022-10-17T16:37:48;101990.95;;;19.74;49.99
63927;BME280;50103;47.960;21.712;2022-10-17T16:40:14;101993.95;;;19.59;50.58
63927;BME280;50103;47.960;21.712;2022-10-17T16:42:40;101992.69;;;19.42;51.12
63927;BME280;50103;47.960;21.712;2022-10-17T16:45:06;101988.59;;;19.28;51.64
63927;BME280;50103;47.960;21.712;2022-10-17T16:47:32;101994.58;;;19.17;52.08
63927;BME280;50103;47.960;21.712;2022-10-17T16:49:57;101994.75;;;19.10;52.61
63927;BME280;50103;47.960;21.712;2022-10-17T16:52:22;101997.31;;;19.08;53.03
63927;BME280;50103;47.960;21.712;2022-10-17T16:54:48;101999.58;;;19.00;53.25
63927;BME280;50103;47.960;21.712;2022-10-17T16:57:13;101998.98;;;18.91;53.59
63927;BME280;50103;47.960;21.712;2022-10-17T16:59:39;101994.59;;;18.79;54.07
63927;BME280;50103;47.960;21.712;2022-10-17T17:02:05;101996.20;;;18.69;54.61
63927;BME280;50103;47.960;21.712;2022-10-17T17:04:30;101996.13;;;18.61;55.00
63927;BME280;50103;47.960;21.712;2022-10-17T17:06:56;101999.14;;;18.52;55.35
63927;BME280;50103;47.960;21.712;2022-10-17T17:09:21;102001.35;;;18.45;55.70
63927;BME280;50103;47.960;21.712;2022-10-17T17:11:46;102002.22;;;18.39;56.14
63927;BME280;50103;47.960;21.712;2022-10-17T17:14:12;102002.77;;;18.31;56.49
63927;BME280;50103;47.960;21.712;2022-10-17T17:16:38;102004.30;;;18.23;57.00
63927;BME280;50103;47.960;21.712;2022-10-17T17:19:08;102004.61;;;18.17;57.38
63927;BME280;50103;47.960;21.712;2022-10-17T17:21:34;102003.42;;;18.12;57.74
63927;BME280;50103;47.960;21.712;2022-10-17T17:24:01;101999.00;;;18.07;58.28
63927;BME280;50103;47.960;21.712;2022-10-17T17:26:29;101998.73;;;18.01;58.68
63927;BME280;50103;47.960;21.712;2022-10-17T17:28:57;102002.55;;;17.99;58.97
63927;BME280;50103;47.960;21.712;2022-10-17T17:31:25;102003.96;;;17.97;59.26
63927;BME280;50103;47.960;21.712;2022-10-17T17:33:51;102001.89;;;17.93;59.53
63927;BME280;50103;47.960;21.712;2022-10-17T17:36:22;102001.62;;;17.90;59.74
63927;BME280;50103;47.960;21.712;2022-10-17T17:38:49;102003.23;;;17.85;59.88
63927;BME280;50103;47.960;21.712;2022-10-17T17:41:17;102004.55;;;17.78;60.08
63927;BME280;50103;47.960;21.712;2022-10-17T17:43:44;102002.95;;;17.71;60.45
63927;BME280;50103;47.960;21.712;2022-10-17T17:46:10;102006.23;;;17.64;60.79
63927;BME280;50103;47.960;21.712;2022-10-17T17:48:37;102007.37;;;17.56;61.13
63927;BME280;50103;47.960;21.712;2022-10-17T17:51:08;102007.95;;;17.49;61.46
63927;BME280;50103;47.960;21.712;2022-10-17T17:53:34;102006.73;;;17.41;61.68
63927;BME280;50103;47.960;21.712;2022-10-17T17:56:05;102008.54;;;17.35;62.10
63927;BME280;50103;47.960;21.712;2022-10-17T17:58:32;102009.09;;;17.28;62.29
63927;BME280;50103;47.960;21.712;2022-10-17T18:00:58;102010.55;;;17.23;62.48
63927;BME280;50103;47.960;21.712;2022-10-17T18:03:24;102010.45;;;17.18;62.82
63927;BME280;50103;47.960;21.712;2022-10-17T18:05:50;102005.98;;;17.12;62.98
63927;BME280;50103;47.960;21.712;2022-10-17T18:08:16;102009.64;;;17.07;63.25
63927;BME280;50103;47.960;21.712;2022-10-17T18:10:49;102007.48;;;17.03;63.56
63927;BME280;50103;47.960;21.712;2022-10-17T18:13:18;102008.33;;;16.98;63.72
63927;BME280;50103;47.960;21.712;2022-10-17T18:15:44;102008.32;;;16.94;64.08
63927;BME280;50103;47.960;21.712;2022-10-17T18:18:11;102008.09;;;16.90;64.25
63927;BME280;50103;47.960;21.712;2022-10-17T18:20:41;102008.60;;;16.86;64.40
63927;BME280;50103;47.960;21.712;2022-10-17T18:23:08;102007.40;;;16.80;64.55
63927;BME280;50103;47.960;21.712;2022-10-17T18:25:34;102001.61;;;16.74;64.74
63927;BME280;50103;47.960;21.712;2022-10-17T18:28:00;101999.16;;;16.69;64.98
63927;BME280;50103;47.960;21.712;2022-10-17T18:30:26;101999.84;;;16.62;65.18
63927;BME280;50103;47.960;21.712;2022-10-17T18:32:51;101999.47;;;16.57;65.36
63927;BME280;50103;47.960;21.712;2022-10-17T18:35:16;101998.84;;;16.52;65.60
63927;BME280;50103;47.960;21.712;2022-10-17T18:37:42;101998.73;;;16.45;65.81
63927;BME280;50103;47.960;21.712;2022-10-17T18:40:08;101996.45;;;16.40;65.99
63927;BME280;50103;47.960;21.712;2022-10-17T18:42:33;101996.11;;;16.35;66.12
63927;BME280;50103;47.960;21.712;2022-10-17T18:44:59;101994.98;;;16.29;66.29
63927;BME280;50103;47.960;21.712;2022-10-17T18:47:24;101989.88;;;16.23;66.36
63927;BME280;50103;47.960;21.712;2022-10-17T18:49:50;101990.58;;;16.19;66.56
63927;BME280;50103;47.960;21.712;2022-10-17T18:52:18;101990.64;;;16.10;66.69
63927;BME280;50103;47.960;21.712;2022-10-17T18:54:44;101987.98;;;16.03;66.96
63927;BME280;50103;47.960;21.712;2022-10-17T18:57:09;101990.25;;;15.99;67.33
63927;BME280;50103;47.960;21.712;2022-10-17T18:59:35;101988.39;;;15.92;67.61
